LFJL/ETZ METAR and TAF weather

Enter ICAO airport designator
Station Type Date Time Source
LFJL METAR 2019/08/18 08:30 UTC NOAA

LFJL 180830Z AUTO 22018KT CAVOK 23/17 Q1008 TEMPO 24015G30KT 3000 TSRA SCT030CB


Station Type Date Time Source
LFJL Decoded METAR 2019/08/18 08:30 UTC NOAA

Station name not available
Aug 18, 2019 - 04:30 AM EDT / 2019.08.18 0830 UTC
Wind: from the SW (220 degrees) at 21 MPH (18 KT):0
Visibility: greater than 7 mile(s):0
Weather: Cumulonimbus clouds observed
Temperature: 73 F (23 C)
Dew Point: 62 F (17 C)
Relative Humidity: 68%
Pressure (altimeter): 29.77 in. Hg (1008 hPa)
ob: LFJL 180830Z AUTO 22018KT CAVOK 23/17 Q1008 TEMPO 24015G30KT 3000 TSRA SCT030CB
cycle: 8

Station Type Date Time Source
LFJL TAF 2019/08/18 06:59 UTC NOAA

TAF
AMD LFJL 180655Z 1806/1906 21010G20KT 9999 FEW020 SCT070
TEMPO 1810/1818 SHRA FEW030CB PROB30
TEMPO 1810/1817 24015G30KT 4000 SHRA SCT030CB
BECMG 1818/1820 26007KT
TEMPO 1900/1906 OVC005 PROB40
TEMPO 1902/1906 3000 BR OVC003

Example: see airport list